| time (UTC) | temp F | wind direction | speed knots | gust knots | rain 1hr in | rain 24hr in | rain mn in | humidity % | barometer mb |
| 20260507134553 | 56 | 315 | 1.7 | 1.7 | 0.00 | 0.17 | 0.17 | 74 | 1001.5 |
| 20260507134049 | 55 | 12 | 1.7 | 1.7 | 0.00 | 0.17 | 0.17 | 72 | 1001.5 |
| 20260507133546 | 54 | 334 | 0.9 | 2.6 | 0.00 | 0.17 | 0.17 | 73 | 1001.5 |
| 20260507133044 | 54 | 314 | 1.7 | 1.7 | 0.00 | 0.17 | 0.17 | 76 | 1001.4 |
| 20260507132540 | 54 | 289 | 1.7 | 1.7 | 0.00 | 0.17 | 0.17 | 79 | 1001.6 |
| 20260507132036 | 53 | 289 | 2.6 | 2.6 | 0.00 | 0.17 | 0.17 | 79 | 1001.6 |
| 20260507131533 | 53 | 354 | 1.7 | 2.6 | 0.00 | 0.17 | 0.17 | 76 | 1001.6 |
| 20260507131031 | 53 | 40 | 2.6 | 3.5 | 0.00 | 0.17 | 0.17 | 77 | 1001.6 |
| 20260507130527 | 53 | 318 | 0.9 | 0.9 | 0.00 | 0.17 | 0.17 | 82 | 1001.5 |
| 20260507130026 | 53 | 255 | 4.3 | 6.1 | 0.00 | 0.17 | 0.17 | 81 | 1001.8 |
| 20260507125524 | 53 | 347 | 2.6 | 3.5 | 0.00 | 0.17 | 0.17 | 79 | 1001.6 |
| 20260507125021 | 53 | 15 | 0.9 | 3.5 | 0.00 | 0.17 | 0.17 | 81 | 1001.6 |
| 20260507124517 | 53 | 323 | 1.7 | 2.6 | 0.00 | 0.17 | 0.17 | 80 | 1001.5 |
| 20260507124016 | 53 | 13 | 0.9 | 1.7 | 0.00 | 0.17 | 0.17 | 80 | 1001.7 |
| 20260507123513 | 51 | 7 | 1.7 | 5.2 | 0.00 | 0.17 | 0.17 | 82 | 1001.5 |
| 20260507123010 | 51 | 24 | 1.7 | 7.8 | 0.00 | 0.17 | 0.17 | 82 | 1001.7 |
| 20260507122504 | 51 | 266 | 1.7 | 3.5 | 0.00 | 0.17 | 0.17 | 82 | 1001.9 |
| 20260507122001 | 51 | 268 | 2.6 | 2.6 | 0.00 | 0.17 | 0.17 | 82 | 1001.9 |
| 20260507121456 | 51 | 223 | 1.7 | 3.5 | 0.00 | 0.17 | 0.17 | 83 | 1001.8 |
| 20260507120953 | 50 | 15 | 0.9 | 3.5 | 0.00 | 0.17 | 0.17 | 88 | 1001.8 |
| 20260507120449 | 50 | 356 | 0.0 | 2.6 | 0.00 | 0.17 | 0.17 | 83 | 1002.0 |
| 20260507115946 | 51 | 320 | 3.5 | 6.1 | 0.00 | 0.17 | 0.17 | 85 | 1002.1 |
| 20260507115442 | 50 | 340 | 0.0 | 1.7 | 0.00 | 0.17 | 0.17 | 85 | 1001.7 |
| 20260507114938 | 50 | 30 | 1.7 | 2.6 | 0.00 | 0.17 | 0.17 | 89 | 1001.8 |
| 20260507114434 | 49 | 3 | 1.7 | 1.7 | 0.00 | 0.17 | 0.17 | 89 | 1002.3 |
| 20260507113932 | 51 | 24 | 0.9 | 0.9 | 0.00 | 0.17 | 0.17 | 87 | 1002.4 |
| 20260507113429 | 49 | 319 | 0.0 | 7.8 | 0.00 | 0.17 | 0.17 | 88 | 1002.2 |
| 20260507112926 | 49 | 339 | 0.9 | 6.1 | 0.00 | 0.17 | 0.17 | 89 | 1001.9 |
| 20260507112424 | 48 | 24 | 0.9 | 1.7 | 0.00 | 0.17 | 0.17 | 91 | 1002.2 |
| 20260507111920 | 48 | 335 | 0.0 | 0.9 | 0.00 | 0.17 | 0.17 | 94 | 1002.2 |
| 20260507111418 | 48 | 306 | 0.9 | 2.6 | 0.00 | 0.17 | 0.17 | 94 | 1001.8 |
| 20260507110914 | 47 | 297 | 0.9 | 1.7 | 0.00 | 0.17 | 0.17 | 94 | 1001.9 |
| 20260507110410 | 47 | 325 | 0.0 | 2.6 | 0.00 | 0.17 | 0.17 | 95 | 1001.7 |
| 20260507105907 | 47 | 350 | 0.0 | 0.9 | 0.00 | 0.17 | 0.17 | 96 | 1001.6 |
| 20260507105403 | 47 | 173 | 1.7 | 2.6 | 0.00 | 0.17 | 0.17 | 96 | 1001.8 |
| 20260507104900 | 47 | 308 | 0.9 | 1.7 | 0.00 | 0.17 | 0.17 | 96 | 1001.9 |
| 20260507104357 | 46 | 342 | 0.0 | 1.7 | 0.00 | 0.17 | 0.17 | 96 | 1001.4 |
| 20260507103853 | 47 | 340 | 0.0 | 0.9 | 0.00 | 0.17 | 0.17 | 98 | 1001.3 |
| 20260507103350 | 46 | 334 | 0.0 | 0.0 | 0.00 | 0.17 | 0.17 | 98 | 1001.6 |
| 20260507102846 | 45 | 3 | 0.0 | 0.9 | 0.00 | 0.17 | 0.17 | 99 | 1001.7 |
| 20260507102343 | 45 | 7 | 0.9 | 1.7 | 0.00 | 0.17 | 0.17 | 99 | 1001.4 |
| 20260507101839 | 44 | 340 | 0.0 | 0.9 | 0.00 | 0.17 | 0.17 | 99 | 1001.4 |
| 20260507101333 | 43 | 337 | 0.9 | 1.7 | 0.00 | 0.17 | 0.17 | 99 | 1001.4 |
| 20260507100831 | 44 | 339 | 0.0 | 0.0 | 0.00 | 0.17 | 0.17 | 99 | 1001.2 |
| 20260507100329 | 44 | 342 | 0.0 | 0.0 | 0.00 | 0.17 | 0.17 | 99 | 1001.5 |
| 20260507095827 | 43 | 333 | 0.0 | 0.0 | 0.00 | 0.17 | 0.17 | 99 | 1001.6 |
| 20260507095323 | 43 | 349 | 0.0 | 0.9 | 0.00 | 0.17 | 0.17 | 99 | 1001.7 |
| 20260507094820 | 43 | 352 | 0.0 | 0.0 | 0.00 | 0.17 | 0.17 | 99 | 1001.5 |
| 20260507094316 | 43 | 347 | 0.0 | 0.0 | 0.00 | 0.17 | 0.17 | 99 | 1001.5 |
| 20260507093813 | 43 | 313 | 0.0 | 0.0 | 0.00 | 0.17 | 0.17 | 99 | 1001.6 |
| 20260507093312 | 44 | 343 | 0.0 | 0.0 | 0.00 | 0.17 | 0.17 | 99 | 1001.5 |
| 20260507092810 | 44 | 331 | 0.0 | 0.0 | 0.00 | 0.17 | 0.17 | 99 | 1001.7 |
| 20260507092307 | 44 | 326 | 0.0 | 0.0 | 0.00 | 0.17 | 0.17 | 99 | 1001.8 |
| 20260507091802 | 43 | 278 | 1.7 | 1.7 | 0.00 | 0.17 | 0.17 | 99 | 1001.5 |
| 20260507091259 | 44 | 320 | 0.0 | 0.0 | 0.00 | 0.17 | 0.17 | 99 | 1001.1 |
| 20260507090759 | 44 | 333 | 0.0 | 1.7 | 0.00 | 0.17 | 0.17 | 99 | 1001.0 |
| 20260507090256 | 44 | 347 | 0.0 | 1.7 | 0.00 | 0.17 | 0.17 | 99 | 1001.0 |
| 20260507085753 | 44 | 329 | 0.0 | 0.0 | 0.00 | 0.17 | 0.17 | 99 | 1001.1 |
| 20260507085250 | 44 | 326 | 0.0 | 2.6 | 0.00 | 0.17 | 0.17 | 99 | 1001.1 |
| 20260507084747 | 45 | 325 | 0.9 | 1.7 | 0.00 | 0.17 | 0.17 | 98 | 1000.8 |
| 20260507084243 | 45 | 316 | 0.0 | 1.7 | 0.00 | 0.17 | 0.17 | 99 | 1001.1 |
| 20260507083741 | 45 | 10 | 0.0 | 1.7 | 0.00 | 0.17 | 0.17 | 99 | 1001.4 |
| 20260507083237 | 45 | 327 | 0.0 | 2.6 | 0.00 | 0.17 | 0.17 | 98 | 1000.8 |
| 20260507082733 | 45 | 65 | 1.7 | 3.5 | 0.00 | 0.17 | 0.17 | 99 | 1000.9 |
| 20260507082229 | 45 | 7 | 1.7 | 3.5 | 0.00 | 0.17 | 0.17 | 99 | 1001.0 |
| 20260507081726 | 46 | 346 | 0.0 | 1.7 | 0.00 | 0.17 | 0.17 | 99 | 1001.0 |
| 20260507081222 | 46 | 323 | 1.7 | 3.5 | 0.00 | 0.17 | 0.17 | 99 | 1000.7 |
| 20260507080719 | 46 | 347 | 0.0 | 2.6 | 0.00 | 0.17 | 0.17 | 99 | 1000.7 |
| 20260507080215 | 46 | 330 | 3.5 | 3.5 | 0.00 | 0.17 | 0.17 | 99 | 1000.9 |
| 20260507075711 | 46 | 313 | 1.7 | 1.7 | 0.00 | 0.17 | 0.17 | 99 | 1001.1 |
| 20260507075208 | 46 | 339 | 0.0 | 3.5 | 0.00 | 0.17 | 0.17 | 99 | 1001.2 |
| 20260507074703 | 46 | 348 | 3.5 | 6.1 | 0.00 | 0.17 | 0.17 | 99 | 1000.8 |
| 20260507074202 | 46 | 341 | 0.0 | 1.7 | 0.00 | 0.17 | 0.17 | 99 | 1000.8 |
| 20260507073658 | 47 | 339 | 0.0 | 0.0 | 0.00 | 0.17 | 0.17 | 99 | 1000.8 |
| 20260507073154 | 47 | 318 | 0.9 | 0.9 | 0.00 | 0.17 | 0.17 | 99 | 1000.7 |
| 20260507072653 | 47 | 311 | 0.9 | 1.7 | 0.00 | 0.17 | 0.17 | 99 | 1000.7 |
| 20260507072150 | 47 | 344 | 0.0 | 1.7 | 0.00 | 0.17 | 0.17 | 99 | 1000.7 |
| 20260507071647 | 47 | 324 | 0.0 | 0.0 | 0.00 | 0.17 | 0.17 | 99 | 1000.6 |
| 20260507071143 | 47 | 326 | 0.0 | 1.7 | 0.05 | 0.17 | 0.17 | 99 | 1000.3 |
| 20260507070640 | 47 | 348 | 0.0 | 1.7 | 0.05 | 0.17 | 0.17 | 99 | 1000.5 |
| 20260507070137 | 47 | 338 | 0.0 | 0.0 | 0.00 | 0.16 | 0.16 | 99 | 1000.6 |
| 20260507065633 | 47 | 329 | 0.0 | 0.0 | 0.00 | 0.16 | 0.16 | 99 | 1000.2 |
| 20260507065130 | 48 | 323 | 0.0 | 2.6 | 0.00 | 0.16 | 0.16 | 99 | 1000.3 |
| 20260507064628 | 48 | 338 | 0.0 | 0.9 | 0.00 | 0.16 | 0.16 | 99 | 1000.2 |
| 20260507064127 | 48 | 111 | 1.7 | 1.7 | 0.00 | 0.16 | 0.16 | 99 | 1000.0 |
| 20260507063624 | 48 | 340 | 0.0 | 0.9 | 0.00 | 0.16 | 0.16 | 99 | 1000.3 |
| 20260507063121 | 48 | 327 | 0.0 | 0.0 | 0.00 | 0.16 | 0.16 | 99 | 1000.0 |
| 20260507062617 | 48 | 312 | 0.0 | 0.9 | 0.07 | 0.16 | 0.16 | 99 | 1000.1 |
| 20260507062115 | 48 | 347 | 0.0 | 0.9 | 0.07 | 0.16 | 0.16 | 99 | 1000.0 |
| 20260507061613 | 48 | 357 | 0.9 | 2.6 | 0.00 | 0.15 | 0.15 | 99 | 999.8 |
| 20260507061111 | 48 | 339 | 0.0 | 0.9 | 0.05 | 0.15 | 0.15 | 99 | 1000.2 |
| 20260507060609 | 48 | 304 | 1.7 | 2.6 | 0.19 | 0.15 | 0.15 | 99 | 1000.6 |
| 20260507060105 | 48 | 185 | 0.9 | 2.6 | 0.19 | 0.14 | 0.14 | 99 | 1000.8 |
| 20260507055600 | 49 | 282 | 2.6 | 2.6 | 0.12 | 0.12 | 0.12 | 99 | 1000.8 |
| 20260507055056 | 49 | 336 | 0.0 | 1.7 | 0.12 | 0.11 | 0.11 | 99 | 1000.9 |
| 20260507054552 | 49 | 311 | 1.7 | 5.2 | 0.12 | 0.10 | 0.10 | 99 | 1000.3 |
| 20260507054049 | 49 | 347 | 0.0 | 0.0 | 0.19 | 0.09 | 0.09 | 99 | 1000.0 |
| 20260507053547 | 49 | 325 | 0.0 | 0.0 | 0.17 | 0.08 | 0.08 | 99 | 999.5 |
| 20260507053046 | 49 | 296 | 1.7 | 1.7 | 0.05 | 0.06 | 0.06 | 99 | 999.8 |
| 20260507052543 | 49 | 9 | 0.9 | 1.7 | 0.07 | 0.05 | 0.05 | 99 | 999.8 |
| 20260507052040 | 49 | 297 | 1.7 | 2.6 | 0.07 | 0.05 | 0.05 | 99 | 999.7 |
| 20260507051537 | 50 | 346 | 0.0 | 2.6 | 0.00 | 0.04 | 0.04 | 99 | 999.9 |
| 20260507051034 | 50 | 347 | 0.9 | 3.5 | 0.00 | 0.04 | 0.04 | 99 | 1000.0 |
| 20260507050530 | 50 | 59 | 1.7 | 7.0 | 0.05 | 0.04 | 0.04 | 99 | 999.8 |
| 20260507050027 | 50 | 230 | 5.2 | 7.0 | 0.05 | 0.04 | 0.04 | 99 | 1000.0 |
| 20260507045524 | 50 | 317 | 0.0 | 2.6 | 0.07 | 0.03 | 0.03 | 99 | 1000.0 |
| 20260507045021 | 50 | 304 | 1.7 | 3.5 | 0.07 | 0.03 | 0.03 | 99 | 1000.1 |
| 20260507044518 | 51 | 317 | 0.0 | 0.9 | 0.05 | 0.02 | 0.02 | 99 | 1000.0 |
| 20260507044014 | 51 | 2 | 0.9 | 1.7 | 0.05 | 0.02 | 0.02 | 99 | 999.8 |
| 20260507043511 | 51 | 314 | 0.0 | 1.7 | 0.00 | 0.01 | 0.01 | 99 | 999.5 |
| 20260507043008 | 51 | 335 | 0.0 | 0.9 | 0.00 | 0.01 | 0.01 | 99 | 999.4 |
| 20260507042504 | 51 | 353 | 0.0 | 1.7 | 0.07 | 0.01 | 0.01 | 99 | 999.5 |
| 20260507041959 | 51 | 318 | 0.9 | 1.7 | 0.07 | 0.01 | 0.01 | 99 | 999.4 |
| 20260507041457 | 51 | 184 | 0.9 | 3.5 | 0.00 | 0.00 | 0.00 | 99 | 999.4 |
| 20260507040953 | 51 | 20 | 0.9 | 3.5 | 0.00 | 0.00 | 0.00 | 99 | 999.5 |
| 20260507040449 | 51 | 91 | 1.7 | 2.6 | 0.00 | 0.00 | 0.00 | 99 | 999.6 |
| 20260507035945 | 51 | 306 | 2.6 | 5.2 | 0.00 | 0.44 | 0.44 | 99 | 999.5 |
| 20260507035442 | 51 | 320 | 0.9 | 2.6 | 0.00 | 0.44 | 0.44 | 99 | 999.5 |
| 20260507034939 | 51 | 277 | 1.7 | 1.7 | 0.07 | 0.44 | 0.44 | 99 | 999.3 |
| 20260507034436 | 51 | 44 | 0.0 | 0.9 | 0.00 | 0.43 | 0.43 | 99 | 999.4 |
| 20260507033934 | 51 | 326 | 3.5 | 5.2 | 0.05 | 0.43 | 0.43 | 99 | 999.5 |
| 20260507033431 | 51 | 220 | 5.2 | 7.0 | 0.17 | 0.43 | 0.43 | 99 | 999.3 |
| 20260507032928 | 51 | 115 | 2.6 | 2.6 | 0.12 | 0.42 | 0.42 | 99 | 999.3 |
| 20260507032425 | 52 | 209 | 0.9 | 5.2 | 0.00 | 0.40 | 0.40 | 99 | 999.4 |
| 20260507031921 | 52 | 332 | 1.7 | 2.6 | 0.00 | 0.40 | 0.40 | 99 | 999.2 |
| 20260507031418 | 52 | 200 | 4.3 | 7.8 | 0.00 | 0.40 | 0.40 | 99 | 999.3 |
| 20260507030914 | 52 | 347 | 1.7 | 7.0 | 0.00 | 0.40 | 0.40 | 99 | 999.1 |
| 20260507030412 | 52 | 251 | 4.3 | 7.0 | 0.00 | 0.40 | 0.40 | 99 | 999.5 |
| 20260507025909 | 52 | 210 | 4.3 | 8.7 | 0.00 | 0.40 | 0.40 | 99 | 999.5 |
| 20260507025406 | 52 | 137 | 3.5 | 7.0 | 0.00 | 0.40 | 0.40 | 99 | 999.5 |
| 20260507024904 | 52 | 156 | 3.5 | 7.0 | 0.00 | 0.40 | 0.40 | 99 | 999.7 |
| 20260507024401 | 52 | 215 | 2.6 | 5.2 | 0.00 | 0.40 | 0.40 | 99 | 999.8 |
| 20260507023857 | 52 | 262 | 4.3 | 6.1 | 0.00 | 0.40 | 0.40 | 99 | 999.9 |
| 20260507023353 | 52 | 147 | 3.5 | 6.1 | 0.00 | 0.40 | 0.40 | 99 | 1000.0 |
| 20260507022851 | 52 | 197 | 5.2 | 6.1 | 0.00 | 0.40 | 0.40 | 99 | 1000.1 |
| 20260507022347 | 53 | 227 | 3.5 | 7.0 | 0.00 | 0.40 | 0.40 | 99 | 1000.1 |
| 20260507021843 | 53 | 71 | 2.6 | 8.7 | 0.00 | 0.40 | 0.40 | 99 | 1000.2 |
| 20260507021339 | 53 | 281 | 1.7 | 8.7 | 0.07 | 0.40 | 0.40 | 99 | 1000.3 |
| 20260507020837 | 53 | 159 | 6.1 | 8.7 | 0.07 | 0.40 | 0.40 | 99 | 1000.5 |
| 20260507020333 | 53 | 278 | 2.6 | 11.3 | 0.00 | 0.39 | 0.39 | 99 | 1000.4 |
| 20260507015830 | 53 | 287 | 2.6 | 6.1 | 0.00 | 0.39 | 0.39 | 99 | 1000.5 |
| 20260507015328 | 53 | 81 | 2.6 | 11.3 | 0.00 | 0.39 | 0.39 | 99 | 1000.8 |
| 20260507014825 | 53 | 140 | 4.3 | 6.1 | 0.05 | 0.39 | 0.39 | 99 | 1000.7 |
| 20260507014321 | 53 | 320 | 2.6 | 5.2 | 0.05 | 0.39 | 0.39 | 99 | 1000.9 |
| 20260507013818 | 53 | 150 | 4.3 | 6.1 | 0.00 | 0.38 | 0.38 | 99 | 1001.0 |
| 20260507013315 | 53 | 166 | 0.9 | 3.5 | 0.00 | 0.38 | 0.38 | 99 | 1001.2 |
| 20260507012813 | 53 | 113 | 1.7 | 7.0 | 0.07 | 0.38 | 0.38 | 99 | 1001.3 |
| 20260507012309 | 53 | 286 | 5.2 | 6.1 | 0.07 | 0.38 | 0.38 | 99 | 1001.2 |
| 20260507011806 | 53 | 86 | 3.5 | 5.2 | 0.00 | 0.37 | 0.37 | 99 | 1001.4 |
| 20260507011302 | 53 | 249 | 1.7 | 8.7 | 0.00 | 0.37 | 0.37 | 99 | 1001.4 |
| 20260507010801 | 53 | 355 | 5.2 | 13.0 | 0.00 | 0.37 | 0.37 | 99 | 1001.6 |
| 20260507010258 | 53 | 200 | 3.5 | 5.2 | 0.00 | 0.37 | 0.37 | 99 | 1001.5 |
| 20260507005756 | 53 | 205 | 7.8 | 13.9 | 0.00 | 0.37 | 0.37 | 99 | 1001.8 |
| 20260507005252 | 53 | 282 | 1.7 | 6.1 | 0.00 | 0.37 | 0.37 | 99 | 1001.7 |
| 20260507004748 | 53 | 20 | 2.6 | 18.2 | 0.00 | 0.37 | 0.37 | 99 | 1001.9 |
| 20260507004246 | 53 | 80 | 4.3 | 7.0 | 0.00 | 0.37 | 0.37 | 99 | 1001.8 |
| 20260507003742 | 53 | 231 | 3.5 | 11.3 | 0.00 | 0.37 | 0.37 | 99 | 1001.8 |
| 20260507003237 | 53 | 241 | 8.7 | 13.9 | 0.00 | 0.37 | 0.37 | 99 | 1001.9 |
| 20260507002734 | 53 | 299 | 4.3 | 7.8 | 0.00 | 0.37 | 0.37 | 99 | 1002.1 |
| 20260507002230 | 53 | 91 | 0.9 | 7.0 | 0.05 | 0.37 | 0.37 | 99 | 1002.2 |
| 20260507001727 | 53 | 150 | 3.5 | 8.7 | 0.05 | 0.37 | 0.37 | 99 | 1001.9 |
| 20260507001224 | 53 | 202 | 2.6 | 3.5 | 0.00 | 0.36 | 0.36 | 99 | 1002.1 |
| 20260507000720 | 53 | 240 | 1.7 | 9.6 | 0.00 | 0.36 | 0.36 | 99 | 1002.0 |
| 20260507000216 | 53 | 319 | 3.5 | 8.7 | 0.00 | 0.36 | 0.36 | 99 | 1002.0 |
| 20260506235713 | 53 | 306 | 1.7 | 5.2 | 0.00 | 0.36 | 0.36 | 99 | 1002.0 |
| 20260506235208 | 54 | 297 | 4.3 | 7.8 | 0.00 | 0.36 | 0.36 | 99 | 1002.1 |
| 20260506234706 | 53 | 222 | 2.6 | 7.8 | 0.07 | 0.36 | 0.36 | 99 | 1002.0 |
| 20260506234203 | 53 | 205 | 5.2 | 6.1 | 0.07 | 0.36 | 0.36 | 99 | 1002.1 |
| 20260506233701 | 53 | 215 | 4.3 | 7.8 | 0.00 | 0.35 | 0.35 | 99 | 1002.0 |
| 20260506233157 | 53 | 203 | 11.3 | 15.6 | 0.05 | 0.35 | 0.35 | 99 | 1002.2 |
| 20260506232653 | 54 | 168 | 4.3 | 12.2 | 0.07 | 0.34 | 0.34 | 99 | 1002.0 |
| 20260506232148 | 54 | 176 | 6.1 | 8.7 | 0.07 | 0.34 | 0.34 | 99 | 1002.2 |
| 20260506231646 | 54 | 321 | 3.5 | 9.6 | 0.07 | 0.33 | 0.33 | 99 | 1001.9 |
| 20260506231145 | 54 | 166 | 6.1 | 8.7 | 0.19 | 0.33 | 0.33 | 99 | 1002.0 |
| 20260506230641 | 54 | 263 | 2.6 | 11.3 | 0.17 | 0.32 | 0.32 | 99 | 1002.0 |
| 20260506230138 | 54 | 164 | 2.6 | 13.0 | 0.12 | 0.30 | 0.30 | 99 | 1002.1 |
| 20260506225634 | 53 | 260 | 3.5 | 7.0 | 0.31 | 0.29 | 0.29 | 99 | 1002.0 |
| 20260506225131 | 53 | 237 | 5.2 | 7.0 | 0.24 | 0.27 | 0.27 | 99 | 1002.4 |
| 20260506224628 | 53 | 277 | 4.3 | 9.6 | 0.12 | 0.24 | 0.24 | 99 | 1002.3 |
| 20260506224124 | 53 | 197 | 2.6 | 11.3 | 0.12 | 0.23 | 0.23 | 99 | 1002.4 |
| 20260506223620 | 53 | 51 | 2.6 | 7.0 | 0.07 | 0.21 | 0.21 | 99 | 1002.7 |
| 20260506223116 | 53 | 261 | 1.7 | 2.6 | 0.12 | 0.20 | 0.20 | 99 | 1002.6 |
| 20260506222614 | 53 | 155 | 1.7 | 3.5 | 0.05 | 0.19 | 0.19 | 99 | 1002.7 |
| 20260506222110 | 53 | 162 | 1.7 | 13.0 | 0.07 | 0.18 | 0.18 | 99 | 1003.0 |
| 20260506221608 | 53 | 136 | 1.7 | 3.5 | 0.12 | 0.17 | 0.17 | 99 | 1003.2 |
| 20260506221106 | 53 | 209 | 5.2 | 13.0 | 0.24 | 0.17 | 0.17 | 99 | 1002.9 |
| 20260506220602 | 53 | 233 | 1.7 | 8.7 | 0.17 | 0.15 | 0.15 | 99 | 1002.9 |
| 20260506220057 | 53 | 124 | 2.6 | 3.5 | 0.05 | 0.13 | 0.13 | 99 | 1002.9 |
| 20260506215554 | 53 | 195 | 2.6 | 7.0 | 0.07 | 0.12 | 0.12 | 99 | 1002.8 |
| 20260506215049 | 53 | 259 | 2.6 | 7.8 | 0.05 | 0.11 | 0.11 | 99 | 1002.9 |
| 20260506214547 | 53 | 291 | 3.5 | 7.0 | 0.12 | 0.11 | 0.11 | 99 | 1002.7 |
| 20260506214044 | 53 | 175 | 2.6 | 5.2 | 0.12 | 0.10 | 0.10 | 99 | 1002.7 |
| 20260506213543 | 53 | 5 | 0.9 | 2.6 | 0.05 | 0.09 | 0.09 | 99 | 1003.1 |
| 20260506213040 | 53 | 295 | 3.5 | 7.0 | 0.07 | 0.08 | 0.08 | 99 | 1003.2 |
| 20260506212536 | 53 | 175 | 5.2 | 7.8 | 0.07 | 0.07 | 0.07 | 98 | 1003.0 |
| 20260506212030 | 53 | 127 | 4.3 | 7.8 | 0.07 | 0.07 | 0.07 | 98 | 1003.1 |
| 20260506211527 | 53 | 157 | 5.2 | 7.8 | 0.05 | 0.06 | 0.06 | 98 | 1003.2 |
| 20260506211024 | 53 | 165 | 5.2 | 7.8 | 0.05 | 0.06 | 0.06 | 98 | 1003.5 |
| 20260506210521 | 53 | 153 | 1.7 | 5.2 | 0.07 | 0.05 | 0.05 | 98 | 1003.2 |
| 20260506210017 | 53 | 110 | 3.5 | 7.0 | 0.12 | 0.05 | 0.05 | 97 | 1003.0 |
| 20260506205514 | 54 | 273 | 1.7 | 3.5 | 0.12 | 0.04 | 0.04 | 97 | 1003.2 |
| 20260506205004 | 54 | 81 | 1.7 | 1.7 | 0.12 | 0.03 | 0.03 | 97 | 1003.3 |
| 20260506204502 | 54 | 271 | 1.7 | 5.2 | 0.05 | 0.02 | 0.02 | 96 | 1003.4 |
| 20260506203959 | 54 | 292 | 3.5 | 7.0 | 0.07 | 0.01 | 0.01 | 95 | 1003.5 |
| 20260506203456 | 54 | 195 | 2.6 | 5.2 | 0.07 | 0.01 | 0.01 | 95 | 1003.7 |
| 20260506202953 | 55 | 337 | 0.9 | 3.5 | 0.00 | 0.00 | 0.00 | 94 | 1003.7 |
| 20260506202450 | 55 | 242 | 2.6 | 5.2 | 0.00 | 0.00 | 0.00 | 92 | 1003.2 |
| 20260506201946 | 55 | 155 | 2.6 | 5.2 | 0.00 | 0.00 | 0.00 | 92 | 1003.2 |
| 20260506201444 | 55 | 166 | 3.5 | 7.8 | 0.00 | 0.00 | 0.00 | 91 | 1003.3 |
| 20260506200940 | 55 | 248 | 1.7 | 5.2 | 0.00 | 0.00 | 0.00 | 91 | 1003.3 |
| 20260506200436 | 55 | 288 | 2.6 | 2.6 | 0.00 | 0.00 | 0.00 | 91 | 1003.5 |
| 20260506195933 | 55 | 212 | 3.5 | 7.0 | 0.00 | 0.00 | 0.00 | 90 | 1003.0 |
| 20260506195430 | 56 | 306 | 1.7 | 7.8 | 0.00 | 0.00 | 0.00 | 90 | 1003.2 |
| 20260506194927 | 55 | 323 | 0.9 | 7.8 | 0.00 | 0.00 | 0.00 | 90 | 1003.2 |
| 20260506194424 | 56 | 166 | 2.6 | 13.0 | 0.00 | 0.00 | 0.00 | 90 | 1003.7 |
| 20260506193921 | 56 | 359 | 2.6 | 3.5 | 0.00 | 0.00 | 0.00 | 89 | 1003.3 |
| 20260506193418 | 56 | 277 | 1.7 | 2.6 | 0.00 | 0.00 | 0.00 | 88 | 1004.1 |
| 20260506192914 | 56 | 68 | 2.6 | 3.5 | 0.00 | 0.00 | 0.00 | 88 | 1004.1 |
| 20260506192411 | 56 | 296 | 5.2 | 7.8 | 0.00 | 0.00 | 0.00 | 88 | 1003.9 |
| 20260506191908 | 57 | 176 | 5.2 | 11.3 | 0.00 | 0.00 | 0.00 | 88 | 1003.7 |
| 20260506191404 | 57 | 169 | 4.3 | 12.2 | 0.00 | 0.00 | 0.00 | 88 | 1003.6 |
| 20260506190902 | 57 | 230 | 3.5 | 11.3 | 0.00 | 0.00 | 0.00 | 87 | 1003.6 |
| 20260506190358 | 57 | 312 | 2.6 | 6.1 | 0.00 | 0.00 | 0.00 | 87 | 1003.7 |
| 20260506185855 | 57 | 141 | 4.3 | 8.7 | 0.00 | 0.00 | 0.00 | 87 | 1003.8 |
| 20260506185352 | 57 | 247 | 5.2 | 7.8 | 0.00 | 0.00 | 0.00 | 87 | 1003.5 |
| 20260506184849 | 57 | 256 | 4.3 | 7.0 | 0.00 | 0.00 | 0.00 | 87 | 1003.6 |
| 20260506184346 | 57 | 89 | 3.5 | 8.7 | 0.00 | 0.00 | 0.00 | 87 | 1003.9 |
| 20260506183843 | 57 | 166 | 2.6 | 5.2 | 0.00 | 0.00 | 0.00 | 87 | 1003.8 |
| 20260506183338 | 58 | 197 | 5.2 | 7.0 | 0.00 | 0.00 | 0.00 | 86 | 1003.7 |
| 20260506182836 | 58 | 223 | 6.1 | 9.6 | 0.00 | 0.00 | 0.00 | 86 | 1003.8 |
| 20260506182333 | 58 | 101 | 2.6 | 5.2 | 0.00 | 0.00 | 0.00 | 86 | 1004.0 |
| 20260506181831 | 58 | 196 | 2.6 | 6.1 | 0.00 | 0.00 | 0.00 | 86 | 1003.9 |
| 20260506181328 | 58 | 162 | 1.7 | 7.8 | 0.00 | 0.00 | 0.00 | 86 | 1004.0 |
| 20260506180825 | 58 | 342 | 3.5 | 9.6 | 0.00 | 0.00 | 0.00 | 85 | 1004.3 |
| 20260506180321 | 58 | 137 | 4.3 | 7.0 | 0.00 | 0.00 | 0.00 | 86 | 1004.3 |
| 20260506175817 | 58 | 203 | 3.5 | 8.7 | 0.00 | 0.00 | 0.00 | 86 | 1004.3 |
| 20260506175315 | 58 | 179 | 1.7 | 7.0 | 0.00 | 0.00 | 0.00 | 86 | 1004.2 |
| 20260506174812 | 58 | 216 | 2.6 | 9.6 | 0.00 | 0.00 | 0.00 | 86 | 1004.5 |
| 20260506174309 | 58 | 133 | 3.5 | 5.2 | 0.00 | 0.00 | 0.00 | 86 | 1004.4 |
| 20260506173806 | 59 | 196 | 2.6 | 6.1 | 0.00 | 0.00 | 0.00 | 86 | 1004.4 |
| 20260506173303 | 59 | 294 | 3.5 | 7.0 | 0.00 | 0.00 | 0.00 | 86 | 1004.5 |
| 20260506172800 | 59 | 112 | 0.9 | 7.0 | 0.00 | 0.00 | 0.00 | 86 | 1004.6 |
| 20260506172256 | 59 | 9 | 1.7 | 3.5 | 0.00 | 0.00 | 0.00 | 87 | 1004.8 |
| 20260506171754 | 59 | 290 | 2.6 | 7.8 | 0.00 | 0.00 | 0.00 | 86 | 1004.8 |
| 20260506171251 | 59 | 130 | 2.6 | 6.1 | 0.00 | 0.00 | 0.00 | 86 | 1004.8 |
| 20260506170749 | 58 | 172 | 3.5 | 5.2 | 0.00 | 0.00 | 0.00 | 86 | 1004.8 |
| 20260506170245 | 59 | 196 | 5.2 | 8.7 | 0.00 | 0.00 | 0.00 | 85 | 1005.0 |
| 20260506165744 | 59 | 187 | 7.0 | 9.6 | 0.00 | 0.00 | 0.00 | 86 | 1004.9 |
| 20260506165240 | 58 | 218 | 2.6 | 5.2 | 0.00 | 0.00 | 0.00 | 87 | 1005.0 |
| 20260506164738 | 58 | 334 | 0.9 | 7.0 | 0.00 | 0.00 | 0.00 | 87 | 1005.0 |
| 20260506164234 | 58 | 182 | 3.5 | 7.0 | 0.00 | 0.00 | 0.00 | 86 | 1005.2 |
| 20260506163731 | 58 | 196 | 5.2 | 8.7 | 0.00 | 0.00 | 0.00 | 86 | 1005.2 |
| 20260506163226 | 58 | 187 | 4.3 | 7.0 | 0.00 | 0.00 | 0.00 | 87 | 1005.2 |
| 20260506162722 | 57 | 325 | 3.5 | 7.0 | 0.00 | 0.00 | 0.00 | 87 | 1005.2 |
| 20260506162220 | 58 | 151 | 5.2 | 7.8 | 0.00 | 0.00 | 0.00 | 87 | 1005.3 |
| 20260506161717 | 58 | 177 | 3.5 | 9.6 | 0.00 | 0.00 | 0.00 | 86 | 1005.3 |
| 20260506161215 | 59 | 170 | 2.6 | 11.3 | 0.00 | 0.00 | 0.00 | 86 | 1005.4 |
| 20260506160712 | 58 | 243 | 3.5 | 7.0 | 0.00 | 0.00 | 0.00 | 86 | 1005.4 |
| 20260506160208 | 59 | 171 | 5.2 | 11.3 | 0.00 | 0.00 | 0.00 | 86 | 1005.5 |
| 20260506155707 | 59 | 330 | 1.7 | 3.5 | 0.00 | 0.00 | 0.00 | 85 | 1005.5 |
| 20260506155204 | 59 | 146 | 4.3 | 6.1 | 0.00 | 0.00 | 0.00 | 85 | 1005.3 |
| 20260506153305 | 60 | 12 | 0.9 | 1.7 | 0.00 | 0.00 | 0.00 | 84 | 1005.1 |
| 20260506152802 | 60 | 315 | 2.6 | 3.5 | 0.00 | 0.00 | 0.00 | 84 | 1004.9 |
| 20260506152259 | 60 | 290 | 4.3 | 7.0 | 0.00 | 0.00 | 0.00 | 83 | 1005.0 |
| 20260506151759 | 60 | 221 | 2.6 | 3.5 | 0.00 | 0.00 | 0.00 | 82 | 1005.2 |
| 20260506151255 | 60 | 333 | 0.9 | 6.1 | 0.00 | 0.00 | 0.00 | 84 | 1005.2 |
| 20260506150751 | 60 | 151 | 3.5 | 5.2 | 0.00 | 0.00 | 0.00 | 83 | 1005.3 |
| 20260506150249 | 60 | 145 | 3.5 | 7.8 | 0.00 | 0.00 | 0.00 | 82 | 1005.3 |
| 20260506145745 | 60 | 231 | 0.9 | 3.5 | 0.00 | 0.00 | 0.00 | 83 | 1005.5 |
| 20260506145242 | 60 | 140 | 2.6 | 6.1 | 0.00 | 0.00 | 0.00 | 82 | 1005.8 |
| 20260506144739 | 60 | 148 | 1.7 | 7.0 | 0.00 | 0.00 | 0.00 | 82 | 1006.0 |
| 20260506144236 | 61 | 199 | 4.3 | 5.2 | 0.00 | 0.00 | 0.00 | 81 | 1006.2 |
| 20260506143734 | 61 | 144 | 5.2 | 8.7 | 0.00 | 0.00 | 0.00 | 80 | 1005.9 |
| 20260506143231 | 61 | 149 | 7.0 | 7.8 | 0.00 | 0.00 | 0.00 | 80 | 1005.9 |
| 20260506142730 | 61 | 231 | 2.6 | 5.2 | 0.00 | 0.00 | 0.00 | 81 | 1006.2 |
| 20260506142227 | 61 | 241 | 1.7 | 3.5 | 0.00 | 0.00 | 0.00 | 81 | 1005.9 |
| 20260506141725 | 61 | 309 | 1.7 | 2.6 | 0.00 | 0.00 | 0.00 | 81 | 1005.8 |
| 20260506141223 | 61 | 182 | 5.2 | 6.1 | 0.00 | 0.00 | 0.00 | 80 | 1005.8 |
| 20260506140721 | 61 | 112 | 2.6 | 3.5 | 0.00 | 0.00 | 0.00 | 81 | 1005.6 |
| 20260506140217 | 60 | 292 | 2.6 | 3.5 | 0.00 | 0.00 | 0.00 | 81 | 1005.9 |
| 20260506135714 | 60 | 62 | 0.9 | 2.6 | 0.00 | 0.00 | 0.00 | 81 | 1005.7 |
| 20260506135210 | 60 | 136 | 1.7 | 2.6 | 0.00 | 0.00 | 0.00 | 81 | 1005.6 |
| 20260506134707 | 60 | 340 | 1.7 | 2.6 | 0.00 | 0.00 | 0.00 | 82 | 1005.8 |